createdAt,value
2022-09-12T00:00:44.618Z,11.66
2022-09-12T00:03:11.838Z,11.66
2022-09-12T00:05:47.557Z,11.59
2022-09-12T00:08:15.057Z,11.57
2022-09-12T00:10:43.645Z,11.48
2022-09-12T00:13:11.191Z,11.41
2022-09-12T00:15:39.674Z,11.34
2022-09-12T00:18:07.437Z,11.31
2022-09-12T00:20:34.215Z,11.30
2022-09-12T00:23:00.844Z,11.29
2022-09-12T00:25:27.876Z,11.28
2022-09-12T00:27:54.416Z,11.22
2022-09-12T00:30:21.222Z,11.19
2022-09-12T00:32:51.464Z,11.18
2022-09-12T00:35:18.018Z,11.21
2022-09-12T00:37:44.614Z,11.20
2022-09-12T00:40:11.278Z,11.15
2022-09-12T00:42:38.926Z,11.09
2022-09-12T00:45:06.262Z,11.06
2022-09-12T00:47:35.686Z,11.00
2022-09-12T00:50:12.528Z,10.96
2022-09-12T00:52:49.857Z,10.90
2022-09-12T00:55:23.718Z,10.84
2022-09-12T00:57:56.133Z,10.83
2022-09-12T01:00:25.341Z,10.82
2022-09-12T01:02:59.967Z,10.82
2022-09-12T01:05:29.436Z,10.83
2022-09-12T01:07:57.710Z,10.79
2022-09-12T01:10:24.887Z,10.79
2022-09-12T01:12:51.529Z,10.74
2022-09-12T01:15:19.157Z,10.70
2022-09-12T01:18:18.982Z,10.69
2022-09-12T01:21:00.086Z,10.69
2022-09-12T01:23:52.909Z,10.69
2022-09-12T01:26:59.052Z,10.65
2022-09-12T01:29:57.451Z,10.62
2022-09-12T01:32:47.424Z,10.60
2022-09-12T01:35:24.440Z,10.59
2022-09-12T01:38:00.676Z,10.59
2022-09-12T01:40:44.774Z,10.60
2022-09-12T01:43:31.002Z,10.61
2022-09-12T01:46:33.142Z,10.63
2022-09-12T01:49:14.521Z,10.62
2022-09-12T01:52:00.945Z,10.62
2022-09-12T01:54:38.137Z,10.58
2022-09-12T01:57:12.872Z,10.53
2022-09-12T01:59:44.801Z,10.52
2022-09-12T02:02:28.618Z,10.47
2022-09-12T02:05:02.799Z,10.40
2022-09-12T02:07:39.507Z,10.32
2022-09-12T02:10:13.841Z,10.26
2022-09-12T02:12:47.928Z,10.23
2022-09-12T02:15:18.384Z,10.20
2022-09-12T02:17:49.498Z,10.19
2022-09-12T02:20:44.347Z,10.18
2022-09-12T02:23:16.297Z,10.15
2022-09-12T02:25:46.091Z,10.12
2022-09-12T02:28:22.028Z,10.12
2022-09-12T02:31:11.516Z,10.04
2022-09-12T02:34:05.408Z,10.02
2022-09-12T02:36:58.236Z,10.05
2022-09-12T02:39:24.946Z,10.01
2022-09-12T02:41:52.955Z,10.00
2022-09-12T02:44:20.301Z,9.98
2022-09-12T02:46:57.464Z,9.94
2022-09-12T02:49:24.039Z,9.87
2022-09-12T02:51:51.066Z,9.83
2022-09-12T02:54:19.307Z,9.83
2022-09-12T02:56:46.326Z,9.79
2022-09-12T02:59:18.131Z,9.76
2022-09-12T03:02:03.919Z,9.75
2022-09-12T03:04:49.489Z,9.73
2022-09-12T03:07:43.875Z,9.71
2022-09-12T03:10:17.166Z,9.71
2022-09-12T03:13:00.840Z,9.72
2022-09-12T03:15:58.378Z,9.74
2022-09-12T03:18:50.240Z,9.69
2022-09-12T03:21:25.921Z,9.76
2022-09-12T03:24:13.110Z,9.71
2022-09-12T03:26:48.982Z,9.66
2022-09-12T03:29:18.618Z,9.65
2022-09-12T03:31:56.695Z,9.64
2022-09-12T03:34:27.653Z,9.59
2022-09-12T03:36:58.249Z,9.54
2022-09-12T03:39:26.360Z,9.48
2022-09-12T03:41:54.036Z,9.47
2022-09-12T03:44:20.589Z,9.44
2022-09-12T03:46:47.240Z,9.47
2022-09-12T03:49:13.901Z,9.45
2022-09-12T03:51:43.587Z,9.42
2022-09-12T03:54:10.728Z,9.42
2022-09-12T03:56:40.341Z,9.43
2022-09-12T03:59:07.037Z,9.42
2022-09-12T04:01:34.544Z,9.42
2022-09-12T04:04:01.640Z,9.41
2022-09-12T04:06:31.105Z,9.37
2022-09-12T04:08:58.482Z,9.37
2022-09-12T04:11:25.056Z,9.35
2022-09-12T04:13:52.023Z,9.29
2022-09-12T04:16:19.351Z,9.33
2022-09-12T04:18:46.769Z,9.33
2022-09-12T04:21:19.247Z,9.29
2022-09-12T04:23:45.984Z,9.33
2022-09-12T04:26:13.677Z,9.29
2022-09-12T04:28:41.270Z,9.28
2022-09-12T04:31:12.209Z,9.25
2022-09-12T04:33:39.540Z,9.20
2022-09-12T04:36:11.713Z,9.19
2022-09-12T04:38:38.953Z,9.19
2022-09-12T04:41:13.760Z,9.18
2022-09-12T04:43:41.145Z,9.16
2022-09-12T04:46:09.024Z,9.11
2022-09-12T04:48:42.169Z,9.06
2022-09-12T04:51:15.707Z,9.03
2022-09-12T04:53:43.458Z,9.03
2022-09-12T04:56:11.437Z,9.00
2022-09-12T04:58:38.640Z,8.98
2022-09-12T05:01:11.206Z,8.99
2022-09-12T05:03:39.526Z,9.00
2022-09-12T05:06:15.501Z,9.01
2022-09-12T05:08:43.063Z,9.04
2022-09-12T05:11:15.424Z,9.03
2022-09-12T05:13:44.629Z,9.04
2022-09-12T05:16:16.591Z,9.04
2022-09-12T05:18:44.467Z,9.02
2022-09-12T05:21:18.076Z,9.03
2022-09-12T05:23:44.901Z,9.08
2022-09-12T05:26:14.924Z,9.10
2022-09-12T05:28:42.588Z,9.12
2022-09-12T05:31:15.749Z,9.12
2022-09-12T05:33:45.471Z,9.11
2022-09-12T05:36:17.753Z,9.08
2022-09-12T05:38:45.130Z,9.08
2022-09-12T05:41:20.024Z,9.09
2022-09-12T05:44:01.171Z,9.13
2022-09-12T05:46:30.164Z,9.13
2022-09-12T05:48:58.228Z,9.14
2022-09-12T05:51:29.051Z,9.17
2022-09-12T05:53:57.814Z,9.21
2022-09-12T05:56:27.283Z,9.24
2022-09-12T05:59:05.084Z,9.28
2022-09-12T06:01:33.884Z,9.33
2022-09-12T06:04:03.553Z,9.39
2022-09-12T06:06:31.880Z,9.44
2022-09-12T06:09:00.423Z,9.49
2022-09-12T06:11:29.007Z,9.53
2022-09-12T06:13:56.969Z,9.58
2022-09-12T06:16:26.639Z,9.64
2022-09-12T06:18:56.788Z,9.68
2022-09-12T06:21:26.436Z,9.76
2022-09-12T06:23:58.696Z,9.86
2022-09-12T06:26:26.137Z,9.93
2022-09-12T06:28:54.803Z,10.02
2022-09-12T06:31:25.150Z,10.13
2022-09-12T06:33:54.133Z,10.30
2022-09-12T06:36:28.341Z,10.39
2022-09-12T06:39:01.009Z,10.48
2022-09-12T06:41:29.158Z,10.56
2022-09-12T06:43:55.929Z,10.66
2022-09-12T06:46:22.621Z,10.79
2022-09-12T06:48:49.339Z,10.90
2022-09-12T06:51:17.800Z,10.99
2022-09-12T06:53:45.847Z,11.11
2022-09-12T06:56:17.025Z,11.19
2022-09-12T06:58:43.874Z,11.25
2022-09-12T07:01:15.621Z,11.32
2022-09-12T07:03:44.134Z,11.39
2022-09-12T07:06:15.848Z,11.54
2022-09-12T07:08:42.587Z,11.69
2022-09-12T07:11:09.080Z,11.76
2022-09-12T07:13:35.677Z,11.87
2022-09-12T07:16:03.970Z,11.94
2022-09-12T07:18:30.997Z,12.04
2022-09-12T07:21:00.781Z,12.09
2022-09-12T07:23:29.128Z,12.14
2022-09-12T07:26:00.742Z,12.22
2022-09-12T07:28:30.522Z,12.32
2022-09-12T07:30:57.998Z,12.51
2022-09-12T07:33:29.772Z,12.55
2022-09-12T07:36:01.180Z,12.62
2022-09-12T07:38:28.553Z,12.69
2022-09-12T07:40:55.224Z,12.82
2022-09-12T07:43:21.737Z,12.90
2022-09-12T07:45:48.339Z,13.03
2022-09-12T07:48:14.911Z,13.23
2022-09-12T07:50:45.059Z,13.39
2022-09-12T07:53:12.021Z,13.46
2022-09-12T07:55:38.584Z,13.53
2022-09-12T07:58:05.093Z,13.65
2022-09-12T08:00:35.828Z,13.86
2022-09-12T08:03:07.183Z,14.00
2022-09-12T08:05:33.981Z,14.23
2022-09-12T08:08:00.462Z,14.35
2022-09-12T08:10:27.056Z,14.60
2022-09-12T08:12:53.628Z,14.82
2022-09-12T08:15:20.260Z,14.96
2022-09-12T08:17:46.813Z,15.21
2022-09-12T08:20:13.796Z,15.46
2022-09-12T08:22:40.690Z,15.90
2022-09-12T08:25:08.650Z,16.09
2022-09-12T08:27:35.186Z,16.21
2022-09-12T08:30:02.012Z,16.44
2022-09-12T08:32:28.589Z,16.72
2022-09-12T08:34:55.150Z,16.84
2022-09-12T08:37:21.681Z,16.96
2022-09-12T08:39:48.281Z,17.13
2022-09-12T08:42:31.858Z,17.39
2022-09-12T08:45:03.665Z,17.59
2022-09-12T08:47:39.390Z,17.79
2022-09-12T08:50:09.703Z,17.94
2022-09-12T08:52:52.012Z,18.10
2022-09-12T08:55:40.613Z,18.22
2022-09-12T08:58:20.775Z,18.34
2022-09-12T09:01:15.359Z,18.69
2022-09-12T09:04:03.846Z,18.82
2022-09-12T09:06:47.325Z,18.90
2022-09-12T09:09:37.210Z,19.03
2022-09-12T09:12:19.630Z,19.07
2022-09-12T09:14:55.562Z,19.17
2022-09-12T09:17:32.389Z,19.20
2022-09-12T09:20:23.551Z,19.29
2022-09-12T09:22:55.120Z,19.48
2022-09-12T09:25:55.716Z,19.52
2022-09-12T09:28:31.777Z,19.51
2022-09-12T09:30:58.387Z,19.60
2022-09-12T09:33:33.987Z,19.67
2022-09-12T09:36:38.847Z,19.72
2022-09-12T09:39:23.922Z,19.78
2022-09-12T09:42:09.324Z,19.82
2022-09-12T09:44:36.498Z,19.80
2022-09-12T09:47:03.399Z,19.76
2022-09-12T09:49:33.377Z,19.80
2022-09-12T09:52:01.058Z,19.87
2022-09-12T09:54:40.093Z,19.98
2022-09-12T09:57:35.117Z,20.02
2022-09-12T10:00:27.089Z,20.06
2022-09-12T10:03:18.026Z,20.02
2022-09-12T10:05:52.449Z,20.06
2022-09-12T10:08:23.906Z,19.87
2022-09-12T10:10:55.673Z,19.93
2022-09-12T10:13:32.205Z,19.96
2022-09-12T10:16:02.160Z,20.07
2022-09-12T10:18:36.403Z,20.14
2022-09-12T10:21:14.477Z,20.17
2022-09-12T10:23:42.587Z,20.20
2022-09-12T10:26:13.009Z,20.25
2022-09-12T10:28:51.921Z,20.21
2022-09-12T10:31:29.398Z,20.18
2022-09-12T10:33:59.684Z,20.20
2022-09-12T10:36:36.582Z,20.29
2022-09-12T10:39:03.738Z,20.27
2022-09-12T10:41:41.363Z,20.21
2022-09-12T10:44:16.122Z,20.27
2022-09-12T10:46:42.755Z,20.32
2022-09-12T10:49:22.869Z,20.37
2022-09-12T10:51:50.400Z,20.40
2022-09-12T10:54:19.701Z,20.44
2022-09-12T10:57:01.203Z,20.39
2022-09-12T10:59:56.773Z,20.43
2022-09-12T11:02:52.444Z,20.40
2022-09-12T11:05:36.703Z,20.46
2022-09-12T11:08:29.654Z,20.51
2022-09-12T11:11:14.312Z,20.45
2022-09-12T11:14:06.692Z,20.48
2022-09-12T11:16:47.386Z,20.53
2022-09-12T11:19:47.815Z,20.58
2022-09-12T11:22:31.895Z,20.65
2022-09-12T11:25:07.834Z,20.72
2022-09-12T11:27:52.963Z,20.73
2022-09-12T11:30:19.643Z,20.78
2022-09-12T11:33:24.572Z,20.77
2022-09-12T11:35:55.406Z,20.85
2022-09-12T11:38:50.871Z,20.90
2022-09-12T11:41:20.645Z,20.93
2022-09-12T11:44:00.108Z,21.00
2022-09-12T11:46:38.529Z,20.91
2022-09-12T11:49:14.233Z,20.86
2022-09-12T11:51:59.340Z,20.91
2022-09-12T11:54:53.529Z,21.02
2022-09-12T11:57:33.768Z,21.03
2022-09-12T12:00:20.348Z,21.09
2022-09-12T12:03:07.075Z,21.10
2022-09-12T12:05:54.929Z,21.04
2022-09-12T12:08:24.529Z,21.03
2022-09-12T12:10:56.287Z,21.01
2022-09-12T12:13:46.584Z,20.96
2022-09-12T12:16:27.084Z,20.91
2022-09-12T12:19:02.041Z,20.93
2022-09-12T12:21:29.214Z,21.02
2022-09-12T12:24:11.500Z,21.14
2022-09-12T12:26:41.288Z,21.18
2022-09-12T12:29:32.781Z,21.20
2022-09-12T12:31:59.296Z,21.16
2022-09-12T12:34:30.284Z,21.20
2022-09-12T12:36:57.917Z,21.25
2022-09-12T12:39:33.477Z,21.26
2022-09-12T12:42:00.685Z,21.27
2022-09-12T12:44:48.047Z,21.37
2022-09-12T12:47:16.097Z,21.28
2022-09-12T12:49:42.696Z,21.30
2022-09-12T12:52:17.453Z,21.31
2022-09-12T12:54:43.954Z,21.30
2022-09-12T12:57:18.251Z,21.37
2022-09-12T13:00:00.133Z,21.39
2022-09-12T13:02:38.362Z,21.43
2022-09-12T13:05:17.341Z,21.38
2022-09-12T13:07:47.977Z,21.44
2022-09-12T13:10:24.667Z,21.47
2022-09-12T13:12:53.157Z,21.54
2022-09-12T13:15:38.161Z,21.64
2022-09-12T13:18:13.498Z,21.65
2022-09-12T13:20:50.442Z,21.77
2022-09-12T13:23:29.216Z,21.77
2022-09-12T13:25:58.289Z,21.71
2022-09-12T13:28:26.342Z,21.67
2022-09-12T13:30:59.027Z,21.73
2022-09-12T13:33:35.205Z,21.83
2022-09-12T13:36:41.226Z,21.87
2022-09-12T13:39:39.840Z,21.88
2022-09-12T13:42:24.464Z,21.92
2022-09-12T13:45:04.203Z,21.93
2022-09-12T13:47:35.985Z,21.84
2022-09-12T13:50:05.809Z,21.83
2022-09-12T13:52:35.195Z,21.86
2022-09-12T13:55:06.492Z,21.99
2022-09-12T13:57:38.756Z,21.99
2022-09-12T14:00:19.496Z,21.88
2022-09-12T14:02:48.079Z,21.79
2022-09-12T14:05:22.083Z,21.90
2022-09-12T14:07:56.087Z,22.01
2022-09-12T14:10:33.756Z,22.21
2022-09-12T14:13:03.233Z,22.15
2022-09-12T14:15:35.894Z,22.00
2022-09-12T14:18:04.733Z,21.94
2022-09-12T14:20:36.114Z,21.99
2022-09-12T14:23:14.552Z,22.04
2022-09-12T14:25:44.328Z,22.18
2022-09-12T14:28:14.546Z,22.25
2022-09-12T14:30:41.301Z,22.39
2022-09-12T14:33:11.107Z,22.33
2022-09-12T14:35:43.531Z,22.27
2022-09-12T14:38:16.399Z,22.37
2022-09-12T14:40:48.595Z,22.40
2022-09-12T14:43:23.243Z,22.37
2022-09-12T14:45:56.546Z,22.31
2022-09-12T14:48:23.135Z,22.31
2022-09-12T14:50:53.212Z,22.32
2022-09-12T14:53:24.724Z,22.20
2022-09-12T14:56:05.526Z,22.27
2022-09-12T14:58:32.557Z,22.25
2022-09-12T15:01:01.272Z,22.25
2022-09-12T15:03:50.040Z,22.26
2022-09-12T15:06:37.593Z,22.28
2022-09-12T15:09:10.576Z,22.32
2022-09-12T15:11:37.061Z,22.26
2022-09-12T15:14:12.852Z,22.25
2022-09-12T15:16:39.480Z,22.25
2022-09-12T15:19:07.064Z,22.24
2022-09-12T15:21:33.976Z,22.20
2022-09-12T15:24:00.833Z,22.13
2022-09-12T15:26:30.438Z,22.13
2022-09-12T15:28:57.620Z,22.08
2022-09-12T15:31:26.023Z,21.99
2022-09-12T15:33:54.250Z,21.95
2022-09-12T15:36:22.910Z,21.86
2022-09-12T15:38:50.420Z,21.83
2022-09-12T15:41:29.913Z,21.79
2022-09-12T15:43:58.092Z,21.73
2022-09-12T15:46:25.906Z,21.69
2022-09-12T15:48:52.497Z,21.68
2022-09-12T15:51:21.329Z,21.73
2022-09-12T15:53:49.618Z,21.61
2022-09-12T15:56:20.984Z,21.55
2022-09-12T15:58:58.385Z,21.54
2022-09-12T16:01:27.066Z,21.52
2022-09-12T16:03:53.661Z,21.51
2022-09-12T16:06:20.285Z,21.45
2022-09-12T16:08:46.952Z,21.44
2022-09-12T16:11:24.967Z,21.38
2022-09-12T16:13:53.706Z,21.31
2022-09-12T16:16:23.325Z,21.27
2022-09-12T16:18:50.182Z,21.25
2022-09-12T16:21:16.807Z,21.23
2022-09-12T16:23:44.673Z,21.20
2022-09-12T16:26:11.408Z,21.17
2022-09-12T16:28:38.041Z,21.17
2022-09-12T16:31:06.575Z,21.14
2022-09-12T16:33:33.644Z,21.10
2022-09-12T16:36:06.997Z,21.06
2022-09-12T16:38:34.562Z,21.03
2022-09-12T16:41:03.076Z,21.01
2022-09-12T16:43:31.781Z,20.96
2022-09-12T16:46:03.978Z,20.94
2022-09-12T16:48:31.240Z,20.87
2022-09-12T16:50:58.945Z,20.79
2022-09-12T16:53:25.451Z,20.68
2022-09-12T16:55:51.970Z,20.58
2022-09-12T16:58:18.525Z,20.52
2022-09-12T17:00:45.486Z,20.42
2022-09-12T17:03:12.667Z,20.33
2022-09-12T17:05:39.369Z,20.24
2022-09-12T17:08:05.956Z,20.20
2022-09-12T17:10:32.673Z,20.11
2022-09-12T17:13:02.309Z,20.00
2022-09-12T17:15:28.841Z,19.89
2022-09-12T17:17:55.501Z,19.82
2022-09-12T17:20:22.388Z,19.69
2022-09-12T17:22:49.246Z,19.53
2022-09-12T17:25:15.805Z,19.40
2022-09-12T17:27:42.959Z,19.34
2022-09-12T17:30:09.921Z,19.27
2022-09-12T17:32:36.481Z,19.19
2022-09-12T17:35:04.115Z,19.14
2022-09-12T17:37:30.881Z,19.10
2022-09-12T17:39:57.738Z,19.04
2022-09-12T17:42:24.313Z,19.00
2022-09-12T17:44:50.825Z,18.93
2022-09-12T17:47:17.549Z,18.83
2022-09-12T17:49:44.846Z,18.76
2022-09-12T17:52:11.904Z,18.66
2022-09-12T17:54:39.708Z,18.61
2022-09-12T17:57:09.669Z,18.52
2022-09-12T17:59:36.264Z,18.48
2022-09-12T18:02:16.225Z,18.44
2022-09-12T18:04:48.428Z,18.40
2022-09-12T18:07:18.148Z,18.36
2022-09-12T18:09:47.667Z,18.31
2022-09-12T18:12:15.440Z,18.26
2022-09-12T18:14:42.438Z,18.17
2022-09-12T18:17:11.467Z,18.10
2022-09-12T18:19:38.205Z,17.98
2022-09-12T18:22:11.482Z,17.88
2022-09-12T18:24:42.205Z,17.84
2022-09-12T18:27:08.821Z,17.77
2022-09-12T18:29:35.349Z,17.72
2022-09-12T18:32:02.166Z,17.67
2022-09-12T18:34:28.843Z,17.61
2022-09-12T18:36:55.452Z,17.56
2022-09-12T18:39:26.880Z,17.51
2022-09-12T18:41:54.337Z,17.42
2022-09-12T18:44:20.852Z,17.33
2022-09-12T18:46:47.397Z,17.26
2022-09-12T18:49:14.153Z,17.21
2022-09-12T18:51:42.122Z,17.17
2022-09-12T18:54:13.108Z,17.12
2022-09-12T18:56:43.379Z,17.05
2022-09-12T18:59:12.709Z,16.97
2022-09-12T19:01:39.791Z,16.92
2022-09-12T19:04:08.124Z,16.87
2022-09-12T19:06:38.130Z,16.81
2022-09-12T19:09:09.092Z,16.76
2022-09-12T19:11:48.512Z,16.69
2022-09-12T19:14:19.911Z,16.63
2022-09-12T19:16:46.553Z,16.61
2022-09-12T19:19:13.487Z,16.55
2022-09-12T19:21:40.081Z,16.52
2022-09-12T19:24:11.032Z,16.46
2022-09-12T19:26:39.484Z,16.36
2022-09-12T19:29:07.290Z,16.30
2022-09-12T19:31:34.425Z,16.27
2022-09-12T19:34:06.309Z,16.19
2022-09-12T19:36:44.789Z,16.15
2022-09-12T19:39:12.838Z,16.15
2022-09-12T19:41:39.462Z,16.15
2022-09-12T19:44:06.044Z,16.09
2022-09-12T19:46:32.825Z,16.04
2022-09-12T19:48:59.635Z,15.97
2022-09-12T19:51:26.370Z,15.90
2022-09-12T19:53:53.442Z,15.85
2022-09-12T19:56:20.647Z,15.79
2022-09-12T19:58:53.428Z,15.77
2022-09-12T20:01:30.369Z,15.73
2022-09-12T20:03:58.407Z,15.69
2022-09-12T20:06:49.155Z,15.65
2022-09-12T20:09:15.916Z,15.63
2022-09-12T20:11:42.495Z,15.61
2022-09-12T20:14:09.472Z,15.60
2022-09-12T20:16:36.110Z,15.56
2022-09-12T20:19:06.945Z,15.54
2022-09-12T20:21:35.886Z,15.50
2022-09-12T20:24:09.785Z,15.48
2022-09-12T20:26:36.510Z,15.46
2022-09-12T20:29:04.714Z,15.45
2022-09-12T20:31:32.195Z,15.38
2022-09-12T20:33:59.489Z,15.36
2022-09-12T20:36:26.157Z,15.35
2022-09-12T20:38:59.807Z,15.32
2022-09-12T20:41:29.306Z,15.29
2022-09-12T20:43:57.138Z,15.23
2022-09-12T20:46:25.942Z,15.19
2022-09-12T20:48:52.666Z,15.12
2022-09-12T20:51:26.438Z,15.07
2022-09-12T20:53:54.512Z,15.04
2022-09-12T20:56:22.262Z,15.00
2022-09-12T20:58:48.958Z,15.01
2022-09-12T21:01:16.549Z,14.97
2022-09-12T21:03:44.297Z,14.93
2022-09-12T21:06:12.667Z,14.87
2022-09-12T21:08:39.445Z,14.83
2022-09-12T21:11:06.686Z,14.80
2022-09-12T21:13:33.202Z,14.76
2022-09-12T21:16:04.872Z,14.72
2022-09-12T21:18:32.925Z,14.70
2022-09-12T21:20:59.509Z,14.68
2022-09-12T21:23:27.508Z,14.70
2022-09-12T21:25:54.742Z,14.71
2022-09-12T21:28:22.074Z,14.72
2022-09-12T21:30:49.868Z,14.77
2022-09-12T21:33:17.010Z,14.79
2022-09-12T21:35:44.537Z,14.81
2022-09-12T21:38:11.549Z,14.79
2022-09-12T21:40:38.292Z,14.79
2022-09-12T21:43:07.211Z,14.80
2022-09-12T21:45:37.253Z,14.82
2022-09-12T21:48:04.142Z,14.84
2022-09-12T21:50:30.833Z,14.86
2022-09-12T21:52:57.391Z,14.86
2022-09-12T21:55:27.175Z,14.84
2022-09-12T21:57:57.234Z,14.81
2022-09-12T22:00:24.501Z,14.79
2022-09-12T22:02:51.040Z,14.78
2022-09-12T22:05:20.313Z,14.77
2022-09-12T22:07:47.117Z,14.76
2022-09-12T22:10:13.829Z,14.73
2022-09-12T22:12:45.337Z,14.72
2022-09-12T22:15:38.990Z,14.69
2022-09-12T22:18:00.025Z,14.67
2022-09-12T22:20:26.597Z,14.67
2022-09-12T22:23:11.849Z,14.67
2022-09-12T22:25:38.425Z,14.67
2022-09-12T22:28:05.063Z,14.67
2022-09-12T22:30:48.364Z,14.66
2022-09-12T22:33:15.114Z,14.65
2022-09-12T22:35:42.322Z,14.64
2022-09-12T22:38:09.167Z,14.63
2022-09-12T22:40:36.971Z,14.63
2022-09-12T22:43:03.518Z,14.61
2022-09-12T22:45:30.313Z,14.60
2022-09-12T22:48:00.540Z,14.60
2022-09-12T22:50:27.708Z,14.58
2022-09-12T22:52:54.240Z,14.56
2022-09-12T22:55:20.901Z,14.55
2022-09-12T22:57:47.654Z,14.52
2022-09-12T23:00:14.661Z,14.51
2022-09-12T23:02:41.349Z,14.48
2022-09-12T23:05:08.209Z,14.45
2022-09-12T23:07:34.843Z,14.47
2022-09-12T23:10:01.553Z,14.46
2022-09-12T23:12:28.201Z,14.48
2022-09-12T23:14:54.739Z,14.48
2022-09-12T23:17:21.282Z,14.49
2022-09-12T23:19:48.385Z,14.49
2022-09-12T23:22:14.966Z,14.48
2022-09-12T23:24:45.187Z,14.49
2022-09-12T23:27:11.805Z,14.49
2022-09-12T23:29:38.326Z,14.50
2022-09-12T23:32:05.239Z,14.50
2022-09-12T23:34:33.507Z,14.51
2022-09-12T23:37:00.139Z,14.50
2022-09-12T23:39:26.758Z,14.52
2022-09-12T23:41:53.317Z,14.51
2022-09-12T23:44:21.044Z,14.51
2022-09-12T23:46:47.614Z,14.51
2022-09-12T23:49:14.290Z,14.51
2022-09-12T23:51:40.882Z,14.50
2022-09-12T23:54:07.549Z,14.50
2022-09-12T23:56:34.222Z,14.49
2022-09-12T23:59:00.777Z,14.49
